sensor_id;sensor_type;location;lat;lon;timestamp;temperature;humidity
38263;DHT22;24054;50.128;19.730;2022-10-16T00:02:11;21.70;63.20
38263;DHT22;24054;50.128;19.730;2022-10-16T00:04:37;21.70;63.20
38263;DHT22;24054;50.128;19.730;2022-10-16T00:07:04;21.70;63.20
38263;DHT22;24054;50.128;19.730;2022-10-16T00:09:31;21.70;62.90
38263;DHT22;24054;50.128;19.730;2022-10-16T00:11:58;21.70;62.90
38263;DHT22;24054;50.128;19.730;2022-10-16T00:14:25;21.70;63.00
38263;DHT22;24054;50.128;19.730;2022-10-16T00:16:53;21.70;62.90
38263;DHT22;24054;50.128;19.730;2022-10-16T00:19:19;21.70;63.20
38263;DHT22;24054;50.128;19.730;2022-10-16T00:21:46;21.70;63.30
38263;DHT22;24054;50.128;19.730;2022-10-16T00:24:13;21.70;63.00
38263;DHT22;24054;50.128;19.730;2022-10-16T00:26:40;21.70;63.10
38263;DHT22;24054;50.128;19.730;2022-10-16T00:29:06;21.70;62.80
38263;DHT22;24054;50.128;19.730;2022-10-16T00:31:33;21.70;63.20
38263;DHT22;24054;50.128;19.730;2022-10-16T00:34:01;21.70;63.00
38263;DHT22;24054;50.128;19.730;2022-10-16T00:36:28;21.70;63.20
38263;DHT22;24054;50.128;19.730;2022-10-16T00:38:56;21.70;62.90
38263;DHT22;24054;50.128;19.730;2022-10-16T00:41:25;21.70;62.90
38263;DHT22;24054;50.128;19.730;2022-10-16T00:43:52;21.60;62.80
38263;DHT22;24054;50.128;19.730;2022-10-16T00:46:20;21.60;63.00
38263;DHT22;24054;50.128;19.730;2022-10-16T00:48:48;21.70;63.00
38263;DHT22;24054;50.128;19.730;2022-10-16T00:51:17;21.70;63.00
38263;DHT22;24054;50.128;19.730;2022-10-16T00:53:45;21.60;62.90
38263;DHT22;24054;50.128;19.730;2022-10-16T00:56:12;21.70;63.00
38263;DHT22;24054;50.128;19.730;2022-10-16T00:58:39;21.60;62.90
38263;DHT22;24054;50.128;19.730;2022-10-16T01:01:06;21.70;63.00
38263;DHT22;24054;50.128;19.730;2022-10-16T01:03:34;21.70;63.30
38263;DHT22;24054;50.128;19.730;2022-10-16T01:11:34;21.60;62.90
38263;DHT22;24054;50.128;19.730;2022-10-16T01:14:06;21.60;63.30
38263;DHT22;24054;50.128;19.730;2022-10-16T01:16:37;21.60;63.00
38263;DHT22;24054;50.128;19.730;2022-10-16T01:19:08;21.60;62.90
38263;DHT22;24054;50.128;19.730;2022-10-16T01:21:36;21.60;62.80
38263;DHT22;24054;50.128;19.730;2022-10-16T01:24:06;21.60;62.90
38263;DHT22;24054;50.128;19.730;2022-10-16T01:26:44;21.60;62.90
38263;DHT22;24054;50.128;19.730;2022-10-16T01:29:18;21.60;62.90
38263;DHT22;24054;50.128;19.730;2022-10-16T01:31:47;21.60;62.90
38263;DHT22;24054;50.128;19.730;2022-10-16T01:34:15;21.60;62.90
38263;DHT22;24054;50.128;19.730;2022-10-16T01:36:45;21.60;62.90
38263;DHT22;24054;50.128;19.730;2022-10-16T01:39:13;21.60;63.10
38263;DHT22;24054;50.128;19.730;2022-10-16T01:41:41;21.60;62.90
38263;DHT22;24054;50.128;19.730;2022-10-16T01:44:10;21.60;63.30
38263;DHT22;24054;50.128;19.730;2022-10-16T01:46:42;21.60;63.00
38263;DHT22;24054;50.128;19.730;2022-10-16T01:49:09;21.60;63.10
38263;DHT22;24054;50.128;19.730;2022-10-16T01:51:36;21.60;63.00
38263;DHT22;24054;50.128;19.730;2022-10-16T01:54:04;21.60;62.90
38263;DHT22;24054;50.128;19.730;2022-10-16T01:56:31;21.60;62.80
38263;DHT22;24054;50.128;19.730;2022-10-16T01:58:59;21.60;62.90
38263;DHT22;24054;50.128;19.730;2022-10-16T02:01:28;21.60;62.90
38263;DHT22;24054;50.128;19.730;2022-10-16T02:03:57;21.60;62.90
38263;DHT22;24054;50.128;19.730;2022-10-16T02:06:25;21.60;62.90
38263;DHT22;24054;50.128;19.730;2022-10-16T02:08:52;21.60;62.90
38263;DHT22;24054;50.128;19.730;2022-10-16T02:11:19;21.60;62.80
38263;DHT22;24054;50.128;19.730;2022-10-16T02:13:46;21.60;62.70
38263;DHT22;24054;50.128;19.730;2022-10-16T02:16:14;21.60;62.70
38263;DHT22;24054;50.128;19.730;2022-10-16T02:18:41;21.60;62.90
38263;DHT22;24054;50.128;19.730;2022-10-16T02:21:11;21.60;62.80
38263;DHT22;24054;50.128;19.730;2022-10-16T02:23:41;21.60;63.30
38263;DHT22;24054;50.128;19.730;2022-10-16T02:26:11;21.60;62.80
38263;DHT22;24054;50.128;19.730;2022-10-16T02:28:40;21.50;62.70
38263;DHT22;24054;50.128;19.730;2022-10-16T02:31:09;21.60;62.80
38263;DHT22;24054;50.128;19.730;2022-10-16T02:33:36;21.60;62.70
38263;DHT22;24054;50.128;19.730;2022-10-16T02:36:04;21.50;62.60
38263;DHT22;24054;50.128;19.730;2022-10-16T02:38:32;21.60;62.80
38263;DHT22;24054;50.128;19.730;2022-10-16T02:40:59;21.60;62.70
38263;DHT22;24054;50.128;19.730;2022-10-16T02:43:26;21.60;62.70
38263;DHT22;24054;50.128;19.730;2022-10-16T02:45:53;21.50;62.50
38263;DHT22;24054;50.128;19.730;2022-10-16T02:48:20;21.60;62.70
38263;DHT22;24054;50.128;19.730;2022-10-16T02:50:46;21.60;62.70
38263;DHT22;24054;50.128;19.730;2022-10-16T02:53:13;21.50;62.50
38263;DHT22;24054;50.128;19.730;2022-10-16T02:55:41;21.50;62.50
38263;DHT22;24054;50.128;19.730;2022-10-16T02:58:08;21.50;62.50
38263;DHT22;24054;50.128;19.730;2022-10-16T03:00:34;21.50;62.50
38263;DHT22;24054;50.128;19.730;2022-10-16T03:03:01;21.60;62.50
38263;DHT22;24054;50.128;19.730;2022-10-16T03:05:28;21.50;62.70
38263;DHT22;24054;50.128;19.730;2022-10-16T03:07:54;21.50;62.50
38263;DHT22;24054;50.128;19.730;2022-10-16T03:10:21;21.60;62.50
38263;DHT22;24054;50.128;19.730;2022-10-16T03:12:49;21.50;62.80
38263;DHT22;24054;50.128;19.730;2022-10-16T03:15:16;21.50;62.70
38263;DHT22;24054;50.128;19.730;2022-10-16T03:17:43;21.50;62.50
38263;DHT22;24054;50.128;19.730;2022-10-16T03:20:09;21.50;62.50
38263;DHT22;24054;50.128;19.730;2022-10-16T03:22:36;21.50;62.50
38263;DHT22;24054;50.128;19.730;2022-10-16T03:25:03;21.50;62.40
38263;DHT22;24054;50.128;19.730;2022-10-16T03:27:30;21.50;62.50
38263;DHT22;24054;50.128;19.730;2022-10-16T03:29:58;21.50;62.40
38263;DHT22;24054;50.128;19.730;2022-10-16T03:32:25;21.50;62.40
38263;DHT22;24054;50.128;19.730;2022-10-16T03:34:53;21.50;62.40
38263;DHT22;24054;50.128;19.730;2022-10-16T03:37:21;21.50;62.40
38263;DHT22;24054;50.128;19.730;2022-10-16T03:39:48;21.50;62.40
38263;DHT22;24054;50.128;19.730;2022-10-16T03:42:15;21.50;62.40
38263;DHT22;24054;50.128;19.730;2022-10-16T03:44:42;21.50;62.30
38263;DHT22;24054;50.128;19.730;2022-10-16T03:47:10;21.50;62.50
38263;DHT22;24054;50.128;19.730;2022-10-16T03:49:37;21.50;62.50
38263;DHT22;24054;50.128;19.730;2022-10-16T03:52:03;21.50;62.40
38263;DHT22;24054;50.128;19.730;2022-10-16T03:54:30;21.50;62.40
38263;DHT22;24054;50.128;19.730;2022-10-16T03:56:57;21.40;62.30
38263;DHT22;24054;50.128;19.730;2022-10-16T03:59:23;21.50;62.40
38263;DHT22;24054;50.128;19.730;2022-10-16T04:01:50;21.50;62.40
38263;DHT22;24054;50.128;19.730;2022-10-16T04:04:18;21.40;62.30
38263;DHT22;24054;50.128;19.730;2022-10-16T04:06:45;21.40;62.40
38263;DHT22;24054;50.128;19.730;2022-10-16T04:09:12;21.40;62.40
38263;DHT22;24054;50.128;19.730;2022-10-16T04:11:38;21.40;62.30
38263;DHT22;24054;50.128;19.730;2022-10-16T04:14:05;21.40;62.30
38263;DHT22;24054;50.128;19.730;2022-10-16T04:16:32;21.40;62.30
38263;DHT22;24054;50.128;19.730;2022-10-16T04:18:59;21.40;62.30
38263;DHT22;24054;50.128;19.730;2022-10-16T04:21:27;21.40;62.30
38263;DHT22;24054;50.128;19.730;2022-10-16T04:23:56;21.40;62.30
38263;DHT22;24054;50.128;19.730;2022-10-16T04:26:23;21.40;62.30
38263;DHT22;24054;50.128;19.730;2022-10-16T04:28:50;21.40;62.30
38263;DHT22;24054;50.128;19.730;2022-10-16T04:31:16;21.40;62.30
38263;DHT22;24054;50.128;19.730;2022-10-16T04:33:43;21.40;62.20
38263;DHT22;24054;50.128;19.730;2022-10-16T04:36:10;21.40;62.20
38263;DHT22;24054;50.128;19.730;2022-10-16T04:38:38;21.40;62.20
38263;DHT22;24054;50.128;19.730;2022-10-16T04:41:05;21.40;62.20
38263;DHT22;24054;50.128;19.730;2022-10-16T04:43:31;21.40;62.20
38263;DHT22;24054;50.128;19.730;2022-10-16T04:45:58;21.40;62.20
38263;DHT22;24054;50.128;19.730;2022-10-16T04:48:25;21.40;62.20
38263;DHT22;24054;50.128;19.730;2022-10-16T04:50:52;21.40;62.10
38263;DHT22;24054;50.128;19.730;2022-10-16T04:53:18;21.40;62.20
38263;DHT22;24054;50.128;19.730;2022-10-16T04:55:46;21.30;62.10
38263;DHT22;24054;50.128;19.730;2022-10-16T04:58:13;21.40;62.10
38263;DHT22;24054;50.128;19.730;2022-10-16T05:00:40;21.40;62.10
38263;DHT22;24054;50.128;19.730;2022-10-16T05:03:07;21.40;62.20
38263;DHT22;24054;50.128;19.730;2022-10-16T05:05:34;21.30;62.00
38263;DHT22;24054;50.128;19.730;2022-10-16T05:08:00;21.40;62.00
38263;DHT22;24054;50.128;19.730;2022-10-16T05:10:27;21.30;62.00
38263;DHT22;24054;50.128;19.730;2022-10-16T05:12:55;21.40;62.10
38263;DHT22;24054;50.128;19.730;2022-10-16T05:15:22;21.40;62.00
38263;DHT22;24054;50.128;19.730;2022-10-16T05:17:52;21.40;62.00
38263;DHT22;24054;50.128;19.730;2022-10-16T05:20:18;21.40;61.90
38263;DHT22;24054;50.128;19.730;2022-10-16T05:22:45;21.50;61.90
38263;DHT22;24054;50.128;19.730;2022-10-16T05:25:12;21.50;61.90
38263;DHT22;24054;50.128;19.730;2022-10-16T05:27:39;21.50;61.90
38263;DHT22;24054;50.128;19.730;2022-10-16T05:30:07;21.60;61.90
38263;DHT22;24054;50.128;19.730;2022-10-16T05:32:34;21.60;61.80
38263;DHT22;24054;50.128;19.730;2022-10-16T05:35:01;21.60;61.80
38263;DHT22;24054;50.128;19.730;2022-10-16T05:37:28;21.60;61.80
38263;DHT22;24054;50.128;19.730;2022-10-16T05:39:54;21.70;61.70
38263;DHT22;24054;50.128;19.730;2022-10-16T05:42:21;21.60;61.70
38263;DHT22;24054;50.128;19.730;2022-10-16T05:44:48;21.70;61.70
38263;DHT22;24054;50.128;19.730;2022-10-16T05:47:16;21.60;61.60
38263;DHT22;24054;50.128;19.730;2022-10-16T05:49:43;21.70;61.60
38263;DHT22;24054;50.128;19.730;2022-10-16T05:52:09;21.70;61.60
38263;DHT22;24054;50.128;19.730;2022-10-16T05:54:36;21.70;61.50
38263;DHT22;24054;50.128;19.730;2022-10-16T05:57:03;21.70;61.50
38263;DHT22;24054;50.128;19.730;2022-10-16T05:59:31;21.70;61.40
38263;DHT22;24054;50.128;19.730;2022-10-16T06:01:57;21.70;61.40
38263;DHT22;24054;50.128;19.730;2022-10-16T06:04:25;21.70;61.40
38263;DHT22;24054;50.128;19.730;2022-10-16T06:06:52;21.80;61.40
38263;DHT22;24054;50.128;19.730;2022-10-16T06:09:19;21.80;61.40
38263;DHT22;24054;50.128;19.730;2022-10-16T06:11:46;21.80;61.40
38263;DHT22;24054;50.128;19.730;2022-10-16T06:14:12;21.80;61.30
38263;DHT22;24054;50.128;19.730;2022-10-16T06:16:39;21.80;61.30
38263;DHT22;24054;50.128;19.730;2022-10-16T06:19:06;21.80;61.30
38263;DHT22;24054;50.128;19.730;2022-10-16T06:21:35;21.80;61.20
38263;DHT22;24054;50.128;19.730;2022-10-16T06:24:01;21.80;61.30
38263;DHT22;24054;50.128;19.730;2022-10-16T06:26:29;21.90;61.30
38263;DHT22;24054;50.128;19.730;2022-10-16T06:28:57;21.90;61.20
38263;DHT22;24054;50.128;19.730;2022-10-16T06:31:24;21.90;61.20
38263;DHT22;24054;50.128;19.730;2022-10-16T06:33:53;21.90;61.20
38263;DHT22;24054;50.128;19.730;2022-10-16T06:36:23;21.90;61.20
38263;DHT22;24054;50.128;19.730;2022-10-16T06:38:52;21.90;61.30
38263;DHT22;24054;50.128;19.730;2022-10-16T06:41:19;22.00;61.40
38263;DHT22;24054;50.128;19.730;2022-10-16T06:43:47;22.00;61.30
38263;DHT22;24054;50.128;19.730;2022-10-16T06:46:17;22.00;61.40
38263;DHT22;24054;50.128;19.730;2022-10-16T06:48:44;22.00;61.40
38263;DHT22;24054;50.128;19.730;2022-10-16T06:51:12;22.00;61.40
38263;DHT22;24054;50.128;19.730;2022-10-16T06:53:40;22.00;61.40
38263;DHT22;24054;50.128;19.730;2022-10-16T06:56:09;22.10;61.40
38263;DHT22;24054;50.128;19.730;2022-10-16T06:58:36;22.10;61.40
38263;DHT22;24054;50.128;19.730;2022-10-16T07:01:03;22.10;61.30
38263;DHT22;24054;50.128;19.730;2022-10-16T07:03:30;22.10;61.40
38263;DHT22;24054;50.128;19.730;2022-10-16T07:05:56;22.20;61.40
38263;DHT22;24054;50.128;19.730;2022-10-16T07:08:23;22.20;61.40
38263;DHT22;24054;50.128;19.730;2022-10-16T07:10:57;22.20;61.30
38263;DHT22;24054;50.128;19.730;2022-10-16T07:13:26;22.20;61.30
38263;DHT22;24054;50.128;19.730;2022-10-16T07:15:53;22.20;61.20
38263;DHT22;24054;50.128;19.730;2022-10-16T07:18:20;22.30;61.20
38263;DHT22;24054;50.128;19.730;2022-10-16T07:20:47;22.30;61.10
38263;DHT22;24054;50.128;19.730;2022-10-16T07:23:14;22.40;61.10
38263;DHT22;24054;50.128;19.730;2022-10-16T07:25:41;22.40;61.00
38263;DHT22;24054;50.128;19.730;2022-10-16T07:28:08;22.40;60.90
38263;DHT22;24054;50.128;19.730;2022-10-16T07:30:36;22.50;60.90
38263;DHT22;24054;50.128;19.730;2022-10-16T07:33:03;22.50;60.90
38263;DHT22;24054;50.128;19.730;2022-10-16T07:35:30;22.60;61.00
38263;DHT22;24054;50.128;19.730;2022-10-16T07:37:57;22.60;61.00
38263;DHT22;24054;50.128;19.730;2022-10-16T07:40:23;22.60;61.00
38263;DHT22;24054;50.128;19.730;2022-10-16T07:42:52;22.70;61.10
38263;DHT22;24054;50.128;19.730;2022-10-16T07:45:19;22.70;61.00
38263;DHT22;24054;50.128;19.730;2022-10-16T07:47:47;22.80;61.00
38263;DHT22;24054;50.128;19.730;2022-10-16T07:50:14;22.80;61.00
38263;DHT22;24054;50.128;19.730;2022-10-16T07:52:40;22.90;61.00
38263;DHT22;24054;50.128;19.730;2022-10-16T07:55:08;22.90;61.00
38263;DHT22;24054;50.128;19.730;2022-10-16T07:57:35;22.90;61.00
38263;DHT22;24054;50.128;19.730;2022-10-16T08:00:02;23.00;61.00
38263;DHT22;24054;50.128;19.730;2022-10-16T08:02:29;23.10;60.90
38263;DHT22;24054;50.128;19.730;2022-10-16T08:04:57;23.10;60.90
38263;DHT22;24054;50.128;19.730;2022-10-16T08:07:24;23.10;60.90
38263;DHT22;24054;50.128;19.730;2022-10-16T08:09:50;23.20;60.90
38263;DHT22;24054;50.128;19.730;2022-10-16T08:12:18;23.20;60.90
38263;DHT22;24054;50.128;19.730;2022-10-16T08:14:44;23.20;60.80
38263;DHT22;24054;50.128;19.730;2022-10-16T08:17:13;23.30;60.80
38263;DHT22;24054;50.128;19.730;2022-10-16T08:19:40;23.30;60.80
38263;DHT22;24054;50.128;19.730;2022-10-16T08:22:11;23.30;60.70
38263;DHT22;24054;50.128;19.730;2022-10-16T08:24:38;23.40;60.70
38263;DHT22;24054;50.128;19.730;2022-10-16T08:27:05;23.50;60.60
38263;DHT22;24054;50.128;19.730;2022-10-16T08:29:32;23.60;60.40
38263;DHT22;24054;50.128;19.730;2022-10-16T08:31:59;23.70;60.40
38263;DHT22;24054;50.128;19.730;2022-10-16T08:34:26;23.70;60.30
38263;DHT22;24054;50.128;19.730;2022-10-16T08:36:52;23.80;60.30
38263;DHT22;24054;50.128;19.730;2022-10-16T08:39:21;23.90;60.40
38263;DHT22;24054;50.128;19.730;2022-10-16T08:41:57;23.90;60.40
38263;DHT22;24054;50.128;19.730;2022-10-16T08:44:56;24.00;60.50
38263;DHT22;24054;50.128;19.730;2022-10-16T08:47:25;24.00;60.60
38263;DHT22;24054;50.128;19.730;2022-10-16T08:49:56;24.10;60.60
38263;DHT22;24054;50.128;19.730;2022-10-16T08:52:23;24.10;60.60
38263;DHT22;24054;50.128;19.730;2022-10-16T08:54:53;24.10;60.90
38263;DHT22;24054;50.128;19.730;2022-10-16T08:57:22;24.10;61.00
38263;DHT22;24054;50.128;19.730;2022-10-16T08:59:51;24.10;61.00
38263;DHT22;24054;50.128;19.730;2022-10-16T09:02:23;24.10;61.10
38263;DHT22;24054;50.128;19.730;2022-10-16T09:04:55;24.00;61.10
38263;DHT22;24054;50.128;19.730;2022-10-16T09:07:27;24.00;61.10
38263;DHT22;24054;50.128;19.730;2022-10-16T09:10:02;23.90;61.20
38263;DHT22;24054;50.128;19.730;2022-10-16T09:12:35;23.90;61.20
38263;DHT22;24054;50.128;19.730;2022-10-16T09:15:07;23.90;61.40
38263;DHT22;24054;50.128;19.730;2022-10-16T09:17:41;23.80;61.40
38263;DHT22;24054;50.128;19.730;2022-10-16T09:23:00;23.80;61.60
38263;DHT22;24054;50.128;19.730;2022-10-16T09:25:32;23.80;61.50
38263;DHT22;24054;50.128;19.730;2022-10-16T09:27:59;23.70;61.40
38263;DHT22;24054;50.128;19.730;2022-10-16T09:30:26;23.70;61.30
38263;DHT22;24054;50.128;19.730;2022-10-16T09:32:53;23.70;61.40
38263;DHT22;24054;50.128;19.730;2022-10-16T09:35:21;23.70;61.40
38263;DHT22;24054;50.128;19.730;2022-10-16T09:37:49;23.60;61.50
38263;DHT22;24054;50.128;19.730;2022-10-16T09:40:24;23.60;61.50
38263;DHT22;24054;50.128;19.730;2022-10-16T09:42:54;23.60;61.60
38263;DHT22;24054;50.128;19.730;2022-10-16T09:45:23;23.60;61.60
38263;DHT22;24054;50.128;19.730;2022-10-16T09:47:50;23.60;61.50
38263;DHT22;24054;50.128;19.730;2022-10-16T09:50:20;23.50;61.40
38263;DHT22;24054;50.128;19.730;2022-10-16T09:52:48;23.50;61.70
38263;DHT22;24054;50.128;19.730;2022-10-16T09:55:15;23.40;61.40
38263;DHT22;24054;50.128;19.730;2022-10-16T09:57:48;23.50;61.50
38263;DHT22;24054;50.128;19.730;2022-10-16T10:00:17;23.50;61.60
38263;DHT22;24054;50.128;19.730;2022-10-16T10:02:44;23.50;61.60
38263;DHT22;24054;50.128;19.730;2022-10-16T10:05:17;23.40;61.60
38263;DHT22;24054;50.128;19.730;2022-10-16T10:07:44;23.40;61.60
38263;DHT22;24054;50.128;19.730;2022-10-16T10:10:18;23.40;61.60
38263;DHT22;24054;50.128;19.730;2022-10-16T10:12:45;23.40;61.60
38263;DHT22;24054;50.128;19.730;2022-10-16T10:15:13;23.40;61.60
38263;DHT22;24054;50.128;19.730;2022-10-16T10:17:47;23.40;61.60
38263;DHT22;24054;50.128;19.730;2022-10-16T10:20:24;23.40;61.60
38263;DHT22;24054;50.128;19.730;2022-10-16T10:22:51;23.40;61.60
38263;DHT22;24054;50.128;19.730;2022-10-16T10:25:31;23.40;61.60
38263;DHT22;24054;50.128;19.730;2022-10-16T10:28:15;23.40;61.60
38263;DHT22;24054;50.128;19.730;2022-10-16T10:30:47;23.40;61.60
38263;DHT22;24054;50.128;19.730;2022-10-16T10:33:20;23.40;61.50
38263;DHT22;24054;50.128;19.730;2022-10-16T10:35:51;23.40;62.10
38263;DHT22;24054;50.128;19.730;2022-10-16T10:41:07;23.40;61.40
38263;DHT22;24054;50.128;19.730;2022-10-16T10:43:41;23.50;61.40
38263;DHT22;24054;50.128;19.730;2022-10-16T10:46:13;23.50;61.40
38263;DHT22;24054;50.128;19.730;2022-10-16T10:48:50;23.50;61.40
38263;DHT22;24054;50.128;19.730;2022-10-16T10:51:19;23.50;61.40
38263;DHT22;24054;50.128;19.730;2022-10-16T10:53:49;23.50;60.60
38263;DHT22;24054;50.128;19.730;2022-10-16T10:56:21;23.40;59.90
38263;DHT22;24054;50.128;19.730;2022-10-16T10:58:55;23.40;59.90
38263;DHT22;24054;50.128;19.730;2022-10-16T11:01:26;23.30;59.80
38263;DHT22;24054;50.128;19.730;2022-10-16T11:04:02;23.30;59.80
38263;DHT22;24054;50.128;19.730;2022-10-16T11:06:35;23.30;60.50
38263;DHT22;24054;50.128;19.730;2022-10-16T11:09:07;23.30;59.90
38263;DHT22;24054;50.128;19.730;2022-10-16T11:11:38;23.30;60.00
38263;DHT22;24054;50.128;19.730;2022-10-16T11:14:10;23.30;60.10
38263;DHT22;24054;50.128;19.730;2022-10-16T11:16:39;23.30;60.10
38263;DHT22;24054;50.128;19.730;2022-10-16T11:19:11;23.30;60.20
38263;DHT22;24054;50.128;19.730;2022-10-16T11:21:39;23.20;60.20
38263;DHT22;24054;50.128;19.730;2022-10-16T11:24:11;23.20;60.30
38263;DHT22;24054;50.128;19.730;2022-10-16T11:26:44;23.20;60.30
38263;DHT22;24054;50.128;19.730;2022-10-16T11:29:13;23.20;60.40
38263;DHT22;24054;50.128;19.730;2022-10-16T11:31:43;23.20;60.50
38263;DHT22;24054;50.128;19.730;2022-10-16T11:34:13;23.20;60.50
38263;DHT22;24054;50.128;19.730;2022-10-16T11:36:44;23.20;60.60
38263;DHT22;24054;50.128;19.730;2022-10-16T11:39:14;23.20;60.80
38263;DHT22;24054;50.128;19.730;2022-10-16T11:41:45;23.20;60.80
38263;DHT22;24054;50.128;19.730;2022-10-16T11:44:20;23.20;60.90
38263;DHT22;24054;50.128;19.730;2022-10-16T11:46:52;23.20;61.10
38263;DHT22;24054;50.128;19.730;2022-10-16T11:49:21;23.20;61.20
38263;DHT22;24054;50.128;19.730;2022-10-16T11:51:51;23.10;61.20
38263;DHT22;24054;50.128;19.730;2022-10-16T11:54:23;23.10;61.70
38263;DHT22;24054;50.128;19.730;2022-10-16T11:56:51;23.10;61.60
38263;DHT22;24054;50.128;19.730;2022-10-16T11:59:21;23.10;61.80
38263;DHT22;24054;50.128;19.730;2022-10-16T12:01:50;23.10;62.00
38263;DHT22;24054;50.128;19.730;2022-10-16T12:04:21;23.10;62.20
38263;DHT22;24054;50.128;19.730;2022-10-16T12:06:50;23.00;62.20
38263;DHT22;24054;50.128;19.730;2022-10-16T12:09:20;23.10;62.60
38263;DHT22;24054;50.128;19.730;2022-10-16T12:11:48;23.10;62.30
38263;DHT22;24054;50.128;19.730;2022-10-16T12:14:19;23.10;62.30
38263;DHT22;24054;50.128;19.730;2022-10-16T12:16:54;23.10;62.40
38263;DHT22;24054;50.128;19.730;2022-10-16T12:19:23;23.10;62.40
38263;DHT22;24054;50.128;19.730;2022-10-16T12:21:50;23.10;62.40
38263;DHT22;24054;50.128;19.730;2022-10-16T12:24:22;23.10;62.40
38263;DHT22;24054;50.128;19.730;2022-10-16T12:26:53;23.20;62.40
38263;DHT22;24054;50.128;19.730;2022-10-16T12:29:23;23.20;62.40
38263;DHT22;24054;50.128;19.730;2022-10-16T12:31:53;23.20;62.40
38263;DHT22;24054;50.128;19.730;2022-10-16T12:34:26;23.20;62.40
38263;DHT22;24054;50.128;19.730;2022-10-16T12:36:53;23.30;62.50
38263;DHT22;24054;50.128;19.730;2022-10-16T12:39:21;23.20;62.40
38263;DHT22;24054;50.128;19.730;2022-10-16T12:41:48;23.20;62.50
38263;DHT22;24054;50.128;19.730;2022-10-16T12:44:26;23.20;62.40
38263;DHT22;24054;50.128;19.730;2022-10-16T12:46:58;23.30;62.40
38263;DHT22;24054;50.128;19.730;2022-10-16T12:49:31;23.30;62.50
38263;DHT22;24054;50.128;19.730;2022-10-16T12:51:58;23.30;62.40
38263;DHT22;24054;50.128;19.730;2022-10-16T12:54:27;23.30;62.20
38263;DHT22;24054;50.128;19.730;2022-10-16T12:57:02;23.40;62.30
38263;DHT22;24054;50.128;19.730;2022-10-16T12:59:33;23.50;62.20
38263;DHT22;24054;50.128;19.730;2022-10-16T13:02:08;23.50;61.00
38263;DHT22;24054;50.128;19.730;2022-10-16T13:04:46;23.50;59.50
38263;DHT22;24054;50.128;19.730;2022-10-16T13:07:19;23.50;58.50
38263;DHT22;24054;50.128;19.730;2022-10-16T13:09:52;23.50;58.60
38263;DHT22;24054;50.128;19.730;2022-10-16T13:12:26;23.50;58.60
38263;DHT22;24054;50.128;19.730;2022-10-16T13:17:43;23.40;58.60
38263;DHT22;24054;50.128;19.730;2022-10-16T13:20:15;23.40;58.50
38263;DHT22;24054;50.128;19.730;2022-10-16T13:22:47;23.30;58.50
38263;DHT22;24054;50.128;19.730;2022-10-16T13:25:18;23.30;58.50
38263;DHT22;24054;50.128;19.730;2022-10-16T13:27:48;23.30;58.50
38263;DHT22;24054;50.128;19.730;2022-10-16T13:30:18;23.30;58.50
38263;DHT22;24054;50.128;19.730;2022-10-16T13:32:45;23.20;58.50
38263;DHT22;24054;50.128;19.730;2022-10-16T13:35:22;23.20;58.50
38263;DHT22;24054;50.128;19.730;2022-10-16T13:37:49;23.20;58.60
38263;DHT22;24054;50.128;19.730;2022-10-16T13:40:18;23.20;58.60
38263;DHT22;24054;50.128;19.730;2022-10-16T13:42:46;23.20;58.60
38263;DHT22;24054;50.128;19.730;2022-10-16T13:45:19;23.20;58.60
38263;DHT22;24054;50.128;19.730;2022-10-16T13:47:46;23.10;58.60
38263;DHT22;24054;50.128;19.730;2022-10-16T13:50:14;23.10;58.70
38263;DHT22;24054;50.128;19.730;2022-10-16T13:52:43;23.10;58.60
38263;DHT22;24054;50.128;19.730;2022-10-16T13:55:10;23.10;58.80
38263;DHT22;24054;50.128;19.730;2022-10-16T13:57:37;23.10;58.80
38263;DHT22;24054;50.128;19.730;2022-10-16T14:00:16;23.10;58.90
38263;DHT22;24054;50.128;19.730;2022-10-16T14:02:43;23.00;59.50
38263;DHT22;24054;50.128;19.730;2022-10-16T14:05:10;23.00;59.00
38263;DHT22;24054;50.128;19.730;2022-10-16T14:07:38;23.00;59.00
38263;DHT22;24054;50.128;19.730;2022-10-16T14:10:20;23.00;59.10
38263;DHT22;24054;50.128;19.730;2022-10-16T14:12:53;23.00;59.10
38263;DHT22;24054;50.128;19.730;2022-10-16T14:15:20;23.00;59.20
38263;DHT22;24054;50.128;19.730;2022-10-16T14:17:49;23.10;59.60
38263;DHT22;24054;50.128;19.730;2022-10-16T14:20:16;23.10;60.30
38263;DHT22;24054;50.128;19.730;2022-10-16T14:22:43;23.10;60.80
38263;DHT22;24054;50.128;19.730;2022-10-16T14:25:22;23.10;60.90
38263;DHT22;24054;50.128;19.730;2022-10-16T14:27:58;23.10;61.20
38263;DHT22;24054;50.128;19.730;2022-10-16T14:30:26;23.20;61.50
38263;DHT22;24054;50.128;19.730;2022-10-16T14:32:54;23.20;61.40
38263;DHT22;24054;50.128;19.730;2022-10-16T14:35:22;23.20;61.30
38263;DHT22;24054;50.128;19.730;2022-10-16T14:37:51;23.20;61.50
38263;DHT22;24054;50.128;19.730;2022-10-16T14:40:17;23.20;61.60
38263;DHT22;24054;50.128;19.730;2022-10-16T14:42:46;23.20;61.40
38263;DHT22;24054;50.128;19.730;2022-10-16T14:45:13;23.20;61.40
38263;DHT22;24054;50.128;19.730;2022-10-16T14:47:46;23.20;61.70
38263;DHT22;24054;50.128;19.730;2022-10-16T14:50:14;23.20;62.10
38263;DHT22;24054;50.128;19.730;2022-10-16T14:52:41;23.20;62.00
38263;DHT22;24054;50.128;19.730;2022-10-16T14:55:09;23.20;62.30
38263;DHT22;24054;50.128;19.730;2022-10-16T14:57:36;23.20;62.40
38263;DHT22;24054;50.128;19.730;2022-10-16T15:00:06;23.20;62.30
38263;DHT22;24054;50.128;19.730;2022-10-16T15:02:35;23.20;62.50
38263;DHT22;24054;50.128;19.730;2022-10-16T15:05:07;23.20;62.50
38263;DHT22;24054;50.128;19.730;2022-10-16T15:07:37;23.20;62.60
38263;DHT22;24054;50.128;19.730;2022-10-16T15:10:04;23.20;62.60
38263;DHT22;24054;50.128;19.730;2022-10-16T15:12:31;23.20;62.50
38263;DHT22;24054;50.128;19.730;2022-10-16T15:14:57;23.10;62.60
38263;DHT22;24054;50.128;19.730;2022-10-16T15:17:25;23.10;62.40
38263;DHT22;24054;50.128;19.730;2022-10-16T15:19:52;23.10;62.50
38263;DHT22;24054;50.128;19.730;2022-10-16T15:22:19;23.10;62.50
38263;DHT22;24054;50.128;19.730;2022-10-16T15:24:48;23.10;62.50
38263;DHT22;24054;50.128;19.730;2022-10-16T15:27:15;23.10;62.50
38263;DHT22;24054;50.128;19.730;2022-10-16T15:29:42;23.10;62.40
38263;DHT22;24054;50.128;19.730;2022-10-16T15:32:09;23.10;62.50
38263;DHT22;24054;50.128;19.730;2022-10-16T15:34:38;23.10;62.50
38263;DHT22;24054;50.128;19.730;2022-10-16T15:37:04;23.10;62.40
38263;DHT22;24054;50.128;19.730;2022-10-16T15:39:31;23.00;62.40